sensor_id;sensor_type;location;lat;lon;timestamp;pressure;altitude;pressure_sealevel;temperature;humidity
63552;BME280;49698;48.072;7.800;2023-03-26T00:01:06;99016.59;;;10.66;69.47
63552;BME280;49698;48.072;7.800;2023-03-26T00:03:35;99025.75;;;10.65;69.75
63552;BME280;49698;48.072;7.800;2023-03-26T00:06:07;99013.69;;;10.62;69.76
63552;BME280;49698;48.072;7.800;2023-03-26T00:08:36;99017.16;;;10.63;69.60
63552;BME280;49698;48.072;7.800;2023-03-26T00:11:06;99016.63;;;10.61;69.77
63552;BME280;49698;48.072;7.800;2023-03-26T00:13:36;99020.44;;;10.60;69.55
63552;BME280;49698;48.072;7.800;2023-03-26T00:16:05;99015.34;;;10.58;69.86
63552;BME280;49698;48.072;7.800;2023-03-26T00:18:33;99023.41;;;10.58;70.01
63552;BME280;49698;48.072;7.800;2023-03-26T00:21:03;99009.19;;;10.58;69.37
63552;BME280;49698;48.072;7.800;2023-03-26T00:23:34;99016.44;;;10.57;69.48
63552;BME280;49698;48.072;7.800;2023-03-26T00:26:03;99014.56;;;10.58;69.51
63552;BME280;49698;48.072;7.800;2023-03-26T00:28:38;99021.53;;;10.59;69.03
63552;BME280;49698;48.072;7.800;2023-03-26T00:31:08;99020.44;;;10.60;68.97
63552;BME280;49698;48.072;7.800;2023-03-26T00:33:38;99011.25;;;10.61;68.94
63552;BME280;49698;48.072;7.800;2023-03-26T00:36:08;99011.25;;;10.61;68.78
63552;BME280;49698;48.072;7.800;2023-03-26T00:38:37;99012.88;;;10.62;68.58
63552;BME280;49698;48.072;7.800;2023-03-26T00:41:06;99011.78;;;10.63;68.51
63552;BME280;49698;48.072;7.800;2023-03-26T00:43:45;99006.09;;;10.64;68.40
63552;BME280;49698;48.072;7.800;2023-03-26T00:46:14;98997.78;;;10.66;68.16
63552;BME280;49698;48.072;7.800;2023-03-26T00:48:43;98997.78;;;10.66;68.12
63552;BME280;49698;48.072;7.800;2023-03-26T00:51:13;98993.50;;;10.65;68.18
63552;BME280;49698;48.072;7.800;2023-03-26T00:53:42;98990.81;;;10.65;68.11
63552;BME280;49698;48.072;7.800;2023-03-26T00:56:11;98992.97;;;10.63;67.90
63552;BME280;49698;48.072;7.800;2023-03-26T00:58:39;98988.69;;;10.62;67.91
63552;BME280;49698;48.072;7.800;2023-03-26T01:01:12;98992.97;;;10.63;67.42
63552;BME280;49698;48.072;7.800;2023-03-26T01:03:42;98986.00;;;10.62;67.65
63552;BME280;49698;48.072;7.800;2023-03-26T01:06:21;98982.22;;;10.63;67.66
63552;BME280;49698;48.072;7.800;2023-03-26T01:08:54;98974.94;;;10.63;67.46
63552;BME280;49698;48.072;7.800;2023-03-26T01:11:28;98975.75;;;10.64;67.24
63552;BME280;49698;48.072;7.800;2023-03-26T01:14:00;98969.31;;;10.65;66.74
63552;BME280;49698;48.072;7.800;2023-03-26T01:16:34;98961.72;;;10.67;66.85
63552;BME280;49698;48.072;7.800;2023-03-26T01:19:05;98961.72;;;10.67;66.77
63552;BME280;49698;48.072;7.800;2023-03-26T01:21:36;98949.09;;;10.67;66.55
63552;BME280;49698;48.072;7.800;2023-03-26T01:24:08;98934.84;;;10.67;66.06
63552;BME280;49698;48.072;7.800;2023-03-26T01:26:45;98932.16;;;10.67;66.27
63552;BME280;49698;48.072;7.800;2023-03-26T01:29:20;98922.50;;;10.66;66.15
63552;BME280;49698;48.072;7.800;2023-03-26T01:31:55;98917.72;;;10.63;65.81
63552;BME280;49698;48.072;7.800;2023-03-26T01:34:27;98899.22;;;10.61;65.88
63552;BME280;49698;48.072;7.800;2023-03-26T01:37:07;98895.69;;;10.61;65.32
63552;BME280;49698;48.072;7.800;2023-03-26T01:39:47;98887.94;;;10.59;65.92
63552;BME280;49698;48.072;7.800;2023-03-26T01:42:26;98880.47;;;10.56;65.62
63552;BME280;49698;48.072;7.800;2023-03-26T01:44:58;98868.13;;;10.55;64.98
63552;BME280;49698;48.072;7.800;2023-03-26T01:47:31;98867.34;;;10.55;65.65
63552;BME280;49698;48.072;7.800;2023-03-26T01:49:59;98858.75;;;10.52;65.30
63552;BME280;49698;48.072;7.800;2023-03-26T01:52:27;98841.03;;;10.51;65.04
63552;BME280;49698;48.072;7.800;2023-03-26T01:54:56;98832.19;;;10.51;65.07
63552;BME280;49698;48.072;7.800;2023-03-26T01:57:33;98837.88;;;10.49;65.19
63552;BME280;49698;48.072;7.800;2023-03-26T02:00:14;98833.28;;;10.50;64.78
63552;BME280;49698;48.072;7.800;2023-03-26T02:02:58;98834.09;;;10.50;65.00
63552;BME280;49698;48.072;7.800;2023-03-26T02:05:31;98834.38;;;10.49;64.99
63552;BME280;49698;48.072;7.800;2023-03-26T02:08:08;98824.44;;;10.49;64.75
63552;BME280;49698;48.072;7.800;2023-03-26T02:10:40;98817.97;;;10.50;64.83
63552;BME280;49698;48.072;7.800;2023-03-26T02:13:10;98814.19;;;10.51;64.54
63552;BME280;49698;48.072;7.800;2023-03-26T02:15:38;98805.31;;;10.51;64.31
63552;BME280;49698;48.072;7.800;2023-03-26T02:18:06;98798.06;;;10.51;64.39
63552;BME280;49698;48.072;7.800;2023-03-26T02:20:36;98801.84;;;10.50;64.86
63552;BME280;49698;48.072;7.800;2023-03-26T02:23:04;98803.44;;;10.51;64.46
63552;BME280;49698;48.072;7.800;2023-03-26T02:25:32;98788.41;;;10.50;64.67
63552;BME280;49698;48.072;7.800;2023-03-26T02:28:03;98781.94;;;10.51;64.68
63552;BME280;49698;48.072;7.800;2023-03-26T02:30:32;98773.06;;;10.51;64.15
63552;BME280;49698;48.072;7.800;2023-03-26T02:33:00;98764.22;;;10.50;64.15
63552;BME280;49698;48.072;7.800;2023-03-26T02:35:36;98751.06;;;10.49;64.12
63552;BME280;49698;48.072;7.800;2023-03-26T02:38:05;98751.59;;;10.51;64.41
63552;BME280;49698;48.072;7.800;2023-03-26T02:40:35;98755.84;;;10.52;64.39
63552;BME280;49698;48.072;7.800;2023-03-26T02:43:05;98754.28;;;10.51;64.36
63552;BME280;49698;48.072;7.800;2023-03-26T02:45:34;98764.22;;;10.50;64.47
63552;BME280;49698;48.072;7.800;2023-03-26T02:48:34;98754.84;;;10.48;64.66
63552;BME280;49698;48.072;7.800;2023-03-26T02:51:12;98747.59;;;10.48;64.30
63552;BME280;49698;48.072;7.800;2023-03-26T02:54:03;98722.41;;;10.44;64.78
63552;BME280;49698;48.072;7.800;2023-03-26T02:56:45;98728.38;;;10.41;64.77
63552;BME280;49698;48.072;7.800;2023-03-26T02:59:25;98726.78;;;10.40;65.31
63552;BME280;49698;48.072;7.800;2023-03-26T03:02:12;98727.91;;;10.39;65.20
63552;BME280;49698;48.072;7.800;2023-03-26T03:04:41;98728.19;;;10.38;65.30
63552;BME280;49698;48.072;7.800;2023-03-26T03:07:09;98724.69;;;10.37;65.45
63552;BME280;49698;48.072;7.800;2023-03-26T03:09:40;98714.25;;;10.36;65.24
63552;BME280;49698;48.072;7.800;2023-03-26T03:12:26;98715.34;;;10.35;65.26
63552;BME280;49698;48.072;7.800;2023-03-26T03:14:56;98711.88;;;10.34;65.69
63552;BME280;49698;48.072;7.800;2023-03-26T03:17:24;98694.66;;;10.35;65.29
63552;BME280;49698;48.072;7.800;2023-03-26T03:19:52;98688.19;;;10.36;65.66
63552;BME280;49698;48.072;7.800;2023-03-26T03:22:20;98670.47;;;10.35;65.38
63552;BME280;49698;48.072;7.800;2023-03-26T03:24:49;98646.91;;;10.32;65.51
63552;BME280;49698;48.072;7.800;2023-03-26T03:27:17;98642.13;;;10.29;65.22
63552;BME280;49698;48.072;7.800;2023-03-26T03:29:53;98646.41;;;10.30;65.51
63552;BME280;49698;48.072;7.800;2023-03-26T03:32:57;98653.38;;;10.31;65.81
63552;BME280;49698;48.072;7.800;2023-03-26T03:35:28;98651.78;;;10.30;66.12
63552;BME280;49698;48.072;7.800;2023-03-26T03:37:58;98647.00;;;10.27;66.51
63552;BME280;49698;48.072;7.800;2023-03-26T03:40:31;98647.28;;;10.25;66.78
63552;BME280;49698;48.072;7.800;2023-03-26T03:42:59;98641.63;;;10.27;66.70
63552;BME280;49698;48.072;7.800;2023-03-26T03:45:36;98638.44;;;10.25;67.34
63552;BME280;49698;48.072;7.800;2023-03-26T03:48:24;98637.72;;;10.19;67.79
63552;BME280;49698;48.072;7.800;2023-03-26T03:50:53;98637.53;;;10.16;68.21
63552;BME280;49698;48.072;7.800;2023-03-26T03:53:24;98629.28;;;10.12;68.58
63552;BME280;49698;48.072;7.800;2023-03-26T03:55:55;98629.66;;;10.05;68.97
63552;BME280;49698;48.072;7.800;2023-03-26T03:58:32;98624.28;;;10.05;68.93
63552;BME280;49698;48.072;7.800;2023-03-26T04:01:08;98615.25;;;10.01;69.23
63552;BME280;49698;48.072;7.800;2023-03-26T04:03:54;98615.81;;;9.98;69.70
63552;BME280;49698;48.072;7.800;2023-03-26T04:06:29;98614.25;;;9.97;69.86
63552;BME280;49698;48.072;7.800;2023-03-26T04:08:57;98601.41;;;9.94;69.96
63552;BME280;49698;48.072;7.800;2023-03-26T04:11:25;98586.50;;;9.88;70.01
63552;BME280;49698;48.072;7.800;2023-03-26T04:14:19;98579.53;;;9.73;71.06
63552;BME280;49698;48.072;7.800;2023-03-26T04:16:59;98584.59;;;9.61;72.06
63552;BME280;49698;48.072;7.800;2023-03-26T04:19:30;98576.63;;;9.56;72.23
63552;BME280;49698;48.072;7.800;2023-03-26T04:21:59;98573.75;;;9.52;72.96
63552;BME280;49698;48.072;7.800;2023-03-26T04:24:33;98556.06;;;9.51;72.67
63552;BME280;49698;48.072;7.800;2023-03-26T04:27:26;98553.28;;;9.57;73.15
63552;BME280;49698;48.072;7.800;2023-03-26T04:30:12;98547.81;;;9.62;72.92
63552;BME280;49698;48.072;7.800;2023-03-26T04:32:42;98543.94;;;9.68;73.07
63552;BME280;49698;48.072;7.800;2023-03-26T04:35:13;98537.78;;;9.67;72.92
63552;BME280;49698;48.072;7.800;2023-03-26T04:37:47;98533.19;;;9.68;73.15
63552;BME280;49698;48.072;7.800;2023-03-26T04:40:21;98535.59;;;9.69;73.08
63552;BME280;49698;48.072;7.800;2023-03-26T04:43:11;98525.16;;;9.68;73.38
63552;BME280;49698;48.072;7.800;2023-03-26T04:45:59;98516.03;;;9.69;73.30
63552;BME280;49698;48.072;7.800;2023-03-26T04:48:30;98505.00;;;9.70;73.81
63552;BME280;49698;48.072;7.800;2023-03-26T04:51:00;98509.75;;;9.73;73.86
63552;BME280;49698;48.072;7.800;2023-03-26T04:53:28;98519.13;;;9.76;73.53
63552;BME280;49698;48.072;7.800;2023-03-26T04:56:24;98519.28;;;9.79;73.34
63552;BME280;49698;48.072;7.800;2023-03-26T04:59:25;98503.69;;;9.82;73.54
63552;BME280;49698;48.072;7.800;2023-03-26T05:01:57;98494.25;;;9.84;73.94
63552;BME280;49698;48.072;7.800;2023-03-26T05:04:28;98491.56;;;9.84;73.92
63552;BME280;49698;48.072;7.800;2023-03-26T05:06:59;98498.00;;;9.83;74.03
63552;BME280;49698;48.072;7.800;2023-03-26T05:09:48;98482.41;;;9.85;74.12
63552;BME280;49698;48.072;7.800;2023-03-26T05:12:33;98475.16;;;9.86;74.23
63552;BME280;49698;48.072;7.800;2023-03-26T05:15:06;98475.16;;;9.86;74.24
63552;BME280;49698;48.072;7.800;2023-03-26T05:17:44;98477.06;;;9.85;74.69
63552;BME280;49698;48.072;7.800;2023-03-26T05:20:24;98478.63;;;9.86;74.59
63552;BME280;49698;48.072;7.800;2023-03-26T05:22:54;98475.94;;;9.86;74.51
63552;BME280;49698;48.072;7.800;2023-03-26T05:25:28;98469.19;;;9.89;73.79
63552;BME280;49698;48.072;7.800;2023-03-26T05:27:58;98469.88;;;9.94;73.49
63552;BME280;49698;48.072;7.800;2023-03-26T05:30:34;98460.63;;;10.00;73.31
63552;BME280;49698;48.072;7.800;2023-03-26T05:33:03;98465.59;;;10.07;73.09
63552;BME280;49698;48.072;7.800;2023-03-26T05:35:40;98450.94;;;10.13;72.66
63552;BME280;49698;48.072;7.800;2023-03-26T05:38:10;98430.16;;;10.19;72.70
63552;BME280;49698;48.072;7.800;2023-03-26T05:40:38;98415.81;;;10.23;72.07
63552;BME280;49698;48.072;7.800;2023-03-26T05:43:07;98419.00;;;10.25;71.86
63552;BME280;49698;48.072;7.800;2023-03-26T05:45:39;98424.56;;;10.29;71.96
63552;BME280;49698;48.072;7.800;2023-03-26T05:48:18;98390.13;;;10.31;71.98
63552;BME280;49698;48.072;7.800;2023-03-26T05:50:47;98394.91;;;10.34;71.82
63552;BME280;49698;48.072;7.800;2023-03-26T05:53:18;98376.56;;;10.36;71.56
63552;BME280;49698;48.072;7.800;2023-03-26T05:56:06;98379.78;;;10.38;71.30
63552;BME280;49698;48.072;7.800;2023-03-26T05:58:55;98385.31;;;10.42;71.59
63552;BME280;49698;48.072;7.800;2023-03-26T06:01:32;98373.94;;;10.45;71.51
63552;BME280;49698;48.072;7.800;2023-03-26T06:04:18;98365.59;;;10.46;71.39
63552;BME280;49698;48.072;7.800;2023-03-26T06:07:05;98354.25;;;10.49;71.54
63552;BME280;49698;48.072;7.800;2023-03-26T06:09:39;98349.00;;;10.53;71.46
63552;BME280;49698;48.072;7.800;2023-03-26T06:12:08;98332.59;;;10.55;71.21
63552;BME280;49698;48.072;7.800;2023-03-26T06:14:38;98344.63;;;10.57;71.43
63552;BME280;49698;48.072;7.800;2023-03-26T06:17:15;98338.63;;;10.60;71.34
63552;BME280;49698;48.072;7.800;2023-03-26T06:20:22;98329.66;;;10.65;71.31
63552;BME280;49698;48.072;7.800;2023-03-26T06:22:51;98325.25;;;10.69;71.57
63552;BME280;49698;48.072;7.800;2023-03-26T06:25:41;98333.16;;;10.74;70.67
63552;BME280;49698;48.072;7.800;2023-03-26T06:28:31;98335.72;;;10.79;70.99
63552;BME280;49698;48.072;7.800;2023-03-26T06:31:17;98330.69;;;10.86;70.92
63552;BME280;49698;48.072;7.800;2023-03-26T06:34:08;98329.94;;;10.94;70.59
63552;BME280;49698;48.072;7.800;2023-03-26T06:36:36;98341.03;;;11.01;70.67
63552;BME280;49698;48.072;7.800;2023-03-26T06:39:04;98322.69;;;11.04;70.55
63552;BME280;49698;48.072;7.800;2023-03-26T06:41:34;98328.38;;;11.02;70.59
63552;BME280;49698;48.072;7.800;2023-03-26T06:44:20;98318.09;;;11.04;71.13
63552;BME280;49698;48.072;7.800;2023-03-26T06:47:07;98328.72;;;11.09;71.03
63552;BME280;49698;48.072;7.800;2023-03-26T06:50:10;98320.81;;;11.13;71.19
63552;BME280;49698;48.072;7.800;2023-03-26T06:52:58;98318.28;;;11.16;71.28
63552;BME280;49698;48.072;7.800;2023-03-26T06:55:51;98316.84;;;11.19;71.35
63552;BME280;49698;48.072;7.800;2023-03-26T06:58:23;98308.31;;;11.17;71.29
63552;BME280;49698;48.072;7.800;2023-03-26T07:01:10;98293.44;;;11.11;72.14
63552;BME280;49698;48.072;7.800;2023-03-26T07:03:56;98308.13;;;11.05;72.62
63552;BME280;49698;48.072;7.800;2023-03-26T07:06:43;98286.31;;;11.06;72.85
63552;BME280;49698;48.072;7.800;2023-03-26T07:09:30;98311.13;;;11.03;73.41
63552;BME280;49698;48.072;7.800;2023-03-26T07:12:18;98308.75;;;11.01;73.44
63552;BME280;49698;48.072;7.800;2023-03-26T07:15:06;98295.63;;;11.00;73.63
63552;BME280;49698;48.072;7.800;2023-03-26T07:17:57;98295.94;;;10.98;73.82
63552;BME280;49698;48.072;7.800;2023-03-26T07:20:31;98286.63;;;10.96;73.96
63552;BME280;49698;48.072;7.800;2023-03-26T07:22:59;98294.03;;;10.99;74.16
63552;BME280;49698;48.072;7.800;2023-03-26T07:25:41;98293.75;;;11.00;74.08
63552;BME280;49698;48.072;7.800;2023-03-26T07:28:26;98280.75;;;11.02;74.28
63552;BME280;49698;48.072;7.800;2023-03-26T07:31:17;98293.75;;;11.00;74.46
63552;BME280;49698;48.072;7.800;2023-03-26T07:34:18;98297.50;;;10.99;74.44
63552;BME280;49698;48.072;7.800;2023-03-26T07:37:09;98304.97;;;11.02;74.36
63552;BME280;49698;48.072;7.800;2023-03-26T07:40:18;98307.03;;;11.06;74.65
63552;BME280;49698;48.072;7.800;2023-03-26T07:43:17;98324.75;;;11.07;74.35
63552;BME280;49698;48.072;7.800;2023-03-26T07:46:00;98326.34;;;11.08;74.39
63552;BME280;49698;48.072;7.800;2023-03-26T07:48:42;98333.91;;;11.06;74.58
63552;BME280;49698;48.072;7.800;2023-03-26T07:51:15;98319.84;;;11.00;74.95
63552;BME280;49698;48.072;7.800;2023-03-26T07:54:14;98318.22;;;10.90;75.42
63552;BME280;49698;48.072;7.800;2023-03-26T07:56:57;98321.03;;;10.85;76.08
63552;BME280;49698;48.072;7.800;2023-03-26T07:59:42;98325.13;;;10.83;76.68
63552;BME280;49698;48.072;7.800;2023-03-26T08:03:04;98326.41;;;10.85;76.60
63552;BME280;49698;48.072;7.800;2023-03-26T08:06:05;98326.28;;;10.90;76.98
63552;BME280;49698;48.072;7.800;2023-03-26T08:08:58;98326.78;;;10.92;77.02
63552;BME280;49698;48.072;7.800;2023-03-26T08:11:51;98321.84;;;10.94;77.08
63552;BME280;49698;48.072;7.800;2023-03-26T08:14:31;98309.09;;;11.00;77.16
63552;BME280;49698;48.072;7.800;2023-03-26T08:17:08;98316.50;;;11.03;77.16
63552;BME280;49698;48.072;7.800;2023-03-26T08:19:54;98313.50;;;11.05;76.91
63552;BME280;49698;48.072;7.800;2023-03-26T08:22:33;98314.94;;;11.11;76.22
63552;BME280;49698;48.072;7.800;2023-03-26T08:25:17;98313.59;;;11.31;75.32
63552;BME280;49698;48.072;7.800;2023-03-26T08:27:53;98324.84;;;11.59;74.35
63552;BME280;49698;48.072;7.800;2023-03-26T08:30:26;98330.72;;;11.78;73.70
63552;BME280;49698;48.072;7.800;2023-03-26T08:32:56;98337.56;;;11.93;73.41
63552;BME280;49698;48.072;7.800;2023-03-26T08:35:26;98336.00;;;12.01;73.13
63552;BME280;49698;48.072;7.800;2023-03-26T08:37:56;98330.59;;;12.01;72.85
63552;BME280;49698;48.072;7.800;2023-03-26T08:40:40;98331.47;;;12.48;71.62
63552;BME280;49698;48.072;7.800;2023-03-26T08:43:38;98329.88;;;13.32;68.64
63552;BME280;49698;48.072;7.800;2023-03-26T08:46:38;98328.47;;;13.56;67.40
63552;BME280;49698;48.072;7.800;2023-03-26T08:49:40;98318.59;;;13.60;67.46
63552;BME280;49698;48.072;7.800;2023-03-26T08:52:33;98315.88;;;13.60;67.18
63552;BME280;49698;48.072;7.800;2023-03-26T08:55:27;98329.66;;;13.67;67.20
63552;BME280;49698;48.072;7.800;2023-03-26T09:01:37;98342.41;;;14.00;66.54
63552;BME280;49698;48.072;7.800;2023-03-26T09:04:25;98332.94;;;14.27;65.41
63552;BME280;49698;48.072;7.800;2023-03-26T09:10:15;98325.09;;;15.65;61.36
63552;BME280;49698;48.072;7.800;2023-03-26T09:13:32;98334.69;;;17.42;56.23
63552;BME280;49698;48.072;7.800;2023-03-26T09:19:27;98335.31;;;19.13;50.87
63552;BME280;49698;48.072;7.800;2023-03-26T09:25:29;98325.34;;;17.74;54.13
63552;BME280;49698;48.072;7.800;2023-03-26T09:31:44;98317.13;;;16.56;56.57
63552;BME280;49698;48.072;7.800;2023-03-26T09:34:26;98314.78;;;16.11;57.30
63552;BME280;49698;48.072;7.800;2023-03-26T09:37:04;98300.91;;;15.72;57.18
63552;BME280;49698;48.072;7.800;2023-03-26T09:39:45;98296.63;;;15.59;56.78
63552;BME280;49698;48.072;7.800;2023-03-26T09:42:22;98303.22;;;15.33;56.28
63552;BME280;49698;48.072;7.800;2023-03-26T09:48:10;98304.13;;;14.76;56.35
63552;BME280;49698;48.072;7.800;2023-03-26T09:50:54;98327.56;;;14.60;56.53
63552;BME280;49698;48.072;7.800;2023-03-26T09:56:25;98323.47;;;14.54;55.49
63552;BME280;49698;48.072;7.800;2023-03-26T09:59:07;98325.41;;;14.65;55.09
63552;BME280;49698;48.072;7.800;2023-03-26T10:01:50;98324.69;;;15.14;53.95
63552;BME280;49698;48.072;7.800;2023-03-26T10:04:52;98325.28;;;15.60;52.26
63552;BME280;49698;48.072;7.800;2023-03-26T10:07:40;98322.06;;;16.23;51.25
63552;BME280;49698;48.072;7.800;2023-03-26T10:10:17;98330.03;;;16.75;49.29
63552;BME280;49698;48.072;7.800;2023-03-26T10:12:56;98340.78;;;17.03;47.50
63552;BME280;49698;48.072;7.800;2023-03-26T10:15:40;98338.97;;;17.23;46.65
63552;BME280;49698;48.072;7.800;2023-03-26T10:18:29;98355.66;;;17.41;47.04
63552;BME280;49698;48.072;7.800;2023-03-26T10:21:00;98356.25;;;17.50;47.92
63552;BME280;49698;48.072;7.800;2023-03-26T10:23:52;98358.34;;;17.57;48.44
63552;BME280;49698;48.072;7.800;2023-03-26T10:26:36;98355.72;;;17.45;48.80
63552;BME280;49698;48.072;7.800;2023-03-26T10:29:29;98350.31;;;17.29;49.17
63552;BME280;49698;48.072;7.800;2023-03-26T10:32:12;98352.44;;;17.35;48.91
63552;BME280;49698;48.072;7.800;2023-03-26T10:35:05;98349.44;;;17.41;48.88
63552;BME280;49698;48.072;7.800;2023-03-26T10:37:46;98334.97;;;17.36;48.00
63552;BME280;49698;48.072;7.800;2023-03-26T10:40:21;98332.16;;;17.49;47.27
63552;BME280;49698;48.072;7.800;2023-03-26T10:46:05;98333.88;;;17.22;44.71
63552;BME280;49698;48.072;7.800;2023-03-26T10:49:00;98333.97;;;17.09;44.45
63552;BME280;49698;48.072;7.800;2023-03-26T10:51:45;98334.94;;;17.17;44.30
63552;BME280;49698;48.072;7.800;2023-03-26T10:54:34;98320.78;;;16.92;43.58
63552;BME280;49698;48.072;7.800;2023-03-26T10:57:11;98328.97;;;16.96;43.49
63552;BME280;49698;48.072;7.800;2023-03-26T10:59:44;98331.22;;;17.25;43.09
63552;BME280;49698;48.072;7.800;2023-03-26T11:02:27;98336.88;;;17.52;42.20
63552;BME280;49698;48.072;7.800;2023-03-26T11:05:19;98325.72;;;17.57;41.75
63552;BME280;49698;48.072;7.800;2023-03-26T11:07:58;98333.78;;;17.53;42.33
63552;BME280;49698;48.072;7.800;2023-03-26T11:10:40;98325.03;;;17.25;42.43
63552;BME280;49698;48.072;7.800;2023-03-26T11:13:18;98326.50;;;17.22;42.88
63552;BME280;49698;48.072;7.800;2023-03-26T11:15:54;98314.41;;;17.35;42.66
63552;BME280;49698;48.072;7.800;2023-03-26T11:18:33;98305.88;;;17.37;42.85
63552;BME280;49698;48.072;7.800;2023-03-26T11:21:07;98304.19;;;17.48;42.64
63552;BME280;49698;48.072;7.800;2023-03-26T11:23:44;98305.88;;;17.72;42.12
63552;BME280;49698;48.072;7.800;2023-03-26T11:26:16;98300.31;;;18.04;41.99
63552;BME280;49698;48.072;7.800;2023-03-26T11:29:00;98300.38;;;18.07;41.85
63552;BME280;49698;48.072;7.800;2023-03-26T11:31:38;98296.66;;;18.16;41.41
63552;BME280;49698;48.072;7.800;2023-03-26T11:34:12;98301.28;;;18.34;41.08
63552;BME280;49698;48.072;7.800;2023-03-26T11:36:45;98295.94;;;18.19;40.71
63552;BME280;49698;48.072;7.800;2023-03-26T11:39:21;98294.38;;;17.79;41.12
63552;BME280;49698;48.072;7.800;2023-03-26T11:41:51;98297.13;;;17.44;41.33
63552;BME280;49698;48.072;7.800;2023-03-26T11:44:29;98294.97;;;17.18;41.63
63552;BME280;49698;48.072;7.800;2023-03-26T11:47:04;98290.72;;;17.01;41.87
63552;BME280;49698;48.072;7.800;2023-03-26T11:49:36;98301.69;;;16.89;41.97
63552;BME280;49698;48.072;7.800;2023-03-26T11:52:04;98314.41;;;16.56;41.82
63552;BME280;49698;48.072;7.800;2023-03-26T11:54:34;98320.81;;;16.20;42.20
63552;BME280;49698;48.072;7.800;2023-03-26T11:57:05;98322.97;;;15.86;42.34
63552;BME280;49698;48.072;7.800;2023-03-26T11:59:37;98325.09;;;15.65;42.78
63552;BME280;49698;48.072;7.800;2023-03-26T12:02:17;98337.03;;;15.52;43.20
63552;BME280;49698;48.072;7.800;2023-03-26T12:04:50;98324.28;;;15.40;43.53
63552;BME280;49698;48.072;7.800;2023-03-26T12:07:22;98324.97;;;15.25;43.92
63552;BME280;49698;48.072;7.800;2023-03-26T12:09:53;98333.56;;;15.02;44.13
63552;BME280;49698;48.072;7.800;2023-03-26T12:12:25;98318.56;;;14.92;45.17
63552;BME280;49698;48.072;7.800;2023-03-26T12:14:54;98321.38;;;14.84;45.71
63552;BME280;49698;48.072;7.800;2023-03-26T12:17:29;98316.09;;;14.75;45.97
63552;BME280;49698;48.072;7.800;2023-03-26T12:19:58;98308.66;;;14.72;46.24
63552;BME280;49698;48.072;7.800;2023-03-26T12:22:29;98308.41;;;14.65;46.71
63552;BME280;49698;48.072;7.800;2023-03-26T12:25:19;98304.66;;;14.57;46.82
63552;BME280;49698;48.072;7.800;2023-03-26T12:27:49;98298.31;;;14.41;46.96
63552;BME280;49698;48.072;7.800;2023-03-26T12:30:21;98284.41;;;14.18;47.52
63552;BME280;49698;48.072;7.800;2023-03-26T12:32:50;98290.50;;;13.94;47.87
63552;BME280;49698;48.072;7.800;2023-03-26T12:35:24;98290.97;;;13.75;48.50
63552;BME280;49698;48.072;7.800;2023-03-26T12:37:54;98292.50;;;13.64;48.83
63552;BME280;49698;48.072;7.800;2023-03-26T12:40:30;98284.47;;;13.55;48.96
63552;BME280;49698;48.072;7.800;2023-03-26T12:43:01;98281.31;;;13.53;49.00
63552;BME280;49698;48.072;7.800;2023-03-26T12:45:36;98251.81;;;13.48;49.55
63552;BME280;49698;48.072;7.800;2023-03-26T12:48:06;98263.13;;;13.41;49.84
63552;BME280;49698;48.072;7.800;2023-03-26T12:50:46;98266.69;;;13.33;49.75
63552;BME280;49698;48.072;7.800;2023-03-26T12:53:34;98269.59;;;13.28;50.19
63552;BME280;49698;48.072;7.800;2023-03-26T12:56:13;98261.00;;;13.26;50.47
63552;BME280;49698;48.072;7.800;2023-03-26T12:59:00;98261.81;;;13.27;50.42
63552;BME280;49698;48.072;7.800;2023-03-26T13:01:43;98244.31;;;13.33;50.03
63552;BME280;49698;48.072;7.800;2023-03-26T13:07:15;98227.28;;;13.74;48.97
63552;BME280;49698;48.072;7.800;2023-03-26T13:12:50;98231.00;;;13.82;48.77
63552;BME280;49698;48.072;7.800;2023-03-26T13:15:24;98232.44;;;13.67;49.51
63552;BME280;49698;48.072;7.800;2023-03-26T13:18:07;98241.16;;;13.52;50.10
63552;BME280;49698;48.072;7.800;2023-03-26T13:20:48;98229.44;;;13.48;50.58
63552;BME280;49698;48.072;7.800;2023-03-26T13:23:27;98215.63;;;13.61;50.58
63552;BME280;49698;48.072;7.800;2023-03-26T13:26:03;98219.09;;;13.83;50.55
63552;BME280;49698;48.072;7.800;2023-03-26T13:28:42;98203.63;;;14.04;50.32
63552;BME280;49698;48.072;7.800;2023-03-26T13:31:19;98201.06;;;14.20;50.42
63552;BME280;49698;48.072;7.800;2023-03-26T13:33:53;98205.00;;;14.23;51.00
63552;BME280;49698;48.072;7.800;2023-03-26T13:36:32;98192.94;;;14.20;51.49
63552;BME280;49698;48.072;7.800;2023-03-26T13:39:13;98184.53;;;14.22;51.41
63552;BME280;49698;48.072;7.800;2023-03-26T13:41:55;98175.53;;;14.30;51.86
63552;BME280;49698;48.072;7.800;2023-03-26T13:44:34;98172.34;;;14.40;51.36
63552;BME280;49698;48.072;7.800;2023-03-26T13:47:09;98161.88;;;14.38;51.34
63552;BME280;49698;48.072;7.800;2023-03-26T13:49:40;98164.25;;;14.28;51.65
63552;BME280;49698;48.072;7.800;2023-03-26T13:52:13;98199.34;;;14.03;52.68
63552;BME280;49698;48.072;7.800;2023-03-26T13:54:47;98313.91;;;13.69;54.24
63552;BME280;49698;48.072;7.800;2023-03-26T13:57:21;98311.59;;;12.70;59.77
63552;BME280;49698;48.072;7.800;2023-03-26T13:59:59;98296.94;;;11.20;64.68
63552;BME280;49698;48.072;7.800;2023-03-26T14:02:39;98321.72;;;10.28;69.35
63552;BME280;49698;48.072;7.800;2023-03-26T14:05:10;98338.28;;;9.86;72.42
63552;BME280;49698;48.072;7.800;2023-03-26T14:07:43;98348.69;;;9.65;73.57
63552;BME280;49698;48.072;7.800;2023-03-26T14:10:16;98355.16;;;9.50;74.39
63552;BME280;49698;48.072;7.800;2023-03-26T14:12:53;98346.22;;;9.41;74.89
63552;BME280;49698;48.072;7.800;2023-03-26T14:15:27;98360.06;;;9.34;74.83
63552;BME280;49698;48.072;7.800;2023-03-26T14:18:02;98359.56;;;9.32;74.86
63552;BME280;49698;48.072;7.800;2023-03-26T14:21:12;98358.84;;;9.40;74.31
63552;BME280;49698;48.072;7.800;2023-03-26T14:24:04;98334.66;;;9.68;73.42
63552;BME280;49698;48.072;7.800;2023-03-26T14:26:52;98363.38;;;10.26;72.00
63552;BME280;49698;48.072;7.800;2023-03-26T14:29:30;98351.22;;;10.82;69.63
63552;BME280;49698;48.072;7.800;2023-03-26T14:32:16;98341.88;;;11.19;68.33